Riverlea, Ohio
Current Conditions -  °F | °C
As of 6:53 AM on Sunday 23 Nov 2014 (Local Time) from KOSU Reporting Station
Overcast Overcast  
Wind Chill: 43°   Ceiling: 5000
Heat Index: 47°   Visibility: 10mi
Dew Point: 34°   Wind: 8mph
Humidity: 61%   Direction: 150°SSE
Pressure: 30"   Gusts: NA
Location:  40.0994°N, 83.0166°W
Report Text: KOSU 231153Z 15007KT 10SM FEW036 OVC050 08/01 A3000 RMK AO2 SLP161 60000 70003 T00830011 10094 20078 58014
Loading
Personal Weather Stations






























Interactive Weather Map New forecast layout! Learn more

10-Day Weather Forecast

Advertisements
Track Severe Weather on mobile